createdAt,value
2022-09-28T00:02:13.042Z,21.98
2022-09-28T00:04:39.637Z,21.99
2022-09-28T00:07:06.140Z,21.74
2022-09-28T00:09:32.699Z,21.71
2022-09-28T00:11:59.864Z,21.77
2022-09-28T00:14:26.785Z,21.75
2022-09-28T00:16:53.528Z,21.72
2022-09-28T00:19:20.047Z,21.71
2022-09-28T00:21:46.676Z,21.71
2022-09-28T00:24:20.530Z,21.88
2022-09-28T00:26:54.146Z,22.00
2022-09-28T00:29:38.776Z,21.90
2022-09-28T00:32:13.643Z,21.76
2022-09-28T00:34:43.528Z,21.49
2022-09-28T00:37:10.229Z,21.75
2022-09-28T00:39:38.394Z,21.49
2022-09-28T00:42:12.158Z,21.60
2022-09-28T00:44:45.950Z,21.66
2022-09-28T00:47:37.985Z,21.77
2022-09-28T00:50:14.607Z,21.73
2022-09-28T00:52:50.108Z,21.75
2022-09-28T00:55:21.805Z,21.86
2022-09-28T00:57:53.079Z,21.69
2022-09-28T01:00:19.614Z,21.81
2022-09-28T01:02:47.786Z,21.67
2022-09-28T01:05:15.021Z,21.61
2022-09-28T01:07:44.180Z,21.77
2022-09-28T01:10:11.127Z,21.74
2022-09-28T01:12:38.006Z,21.82
2022-09-28T01:15:06.112Z,21.80
2022-09-28T01:18:06.091Z,21.85
2022-09-28T01:20:43.126Z,21.91
2022-09-28T01:23:27.556Z,21.89
2022-09-28T01:26:34.638Z,21.84
2022-09-28T01:29:08.359Z,21.77
2022-09-28T01:31:36.394Z,21.70
2022-09-28T01:34:10.300Z,21.54
2022-09-28T01:36:43.632Z,21.60
2022-09-28T01:39:16.263Z,21.53
2022-09-28T01:41:47.280Z,21.47
2022-09-28T01:44:18.063Z,21.38
2022-09-28T01:46:48.947Z,21.43
2022-09-28T01:49:20.750Z,21.34
2022-09-28T01:51:58.432Z,21.41
2022-09-28T01:54:31.531Z,21.40
2022-09-28T01:57:12.112Z,21.40
2022-09-28T01:59:44.227Z,21.35
2022-09-28T02:02:18.931Z,21.39
2022-09-28T02:05:13.678Z,21.42
2022-09-28T02:07:45.164Z,21.49
2022-09-28T02:10:41.248Z,21.54
2022-09-28T02:13:20.759Z,21.60
2022-09-28T02:15:57.063Z,21.63
2022-09-28T02:18:24.651Z,21.61
2022-09-28T02:21:03.879Z,21.61
2022-09-28T02:23:32.320Z,21.51
2022-09-28T02:26:06.455Z,21.59
2022-09-28T02:28:33.126Z,21.32
2022-09-28T02:31:00.726Z,21.10
2022-09-28T02:33:37.490Z,21.30
2022-09-28T02:36:05.090Z,21.35
2022-09-28T02:38:38.082Z,21.51
2022-09-28T02:41:15.104Z,21.53
2022-09-28T02:44:07.527Z,21.43
2022-09-28T02:46:45.870Z,21.17
2022-09-28T02:49:43.602Z,20.98
2022-09-28T02:52:47.721Z,21.01
2022-09-28T02:55:38.271Z,20.86
2022-09-28T02:58:35.447Z,20.75
2022-09-28T03:01:36.484Z,21.07
2022-09-28T03:04:21.750Z,21.30
2022-09-28T03:07:06.051Z,21.31
2022-09-28T03:09:39.756Z,21.28
2022-09-28T03:12:13.255Z,21.48
2022-09-28T03:14:40.197Z,21.63
2022-09-28T03:17:07.084Z,21.56
2022-09-28T03:19:34.758Z,21.92
2022-09-28T03:22:01.683Z,22.12
2022-09-28T03:24:28.508Z,22.14
2022-09-28T03:26:55.045Z,22.25
2022-09-28T03:29:22.575Z,22.40
2022-09-28T03:31:55.133Z,22.62
2022-09-28T03:34:21.960Z,22.46
2022-09-28T03:36:48.597Z,22.62
2022-09-28T03:39:15.434Z,22.56
2022-09-28T03:41:41.978Z,22.75
2022-09-28T03:44:08.534Z,22.42
2022-09-28T03:46:35.209Z,21.95
2022-09-28T03:49:05.990Z,22.21
2022-09-28T03:51:32.619Z,22.47
2022-09-28T03:53:59.163Z,22.63
2022-09-28T03:56:25.851Z,22.78
2022-09-28T03:58:52.471Z,22.80
2022-09-28T04:01:20.255Z,22.88
2022-09-28T04:03:47.736Z,22.99
2022-09-28T04:06:15.120Z,23.05
2022-09-28T04:08:43.005Z,23.02
2022-09-28T04:11:10.177Z,23.17
2022-09-28T04:13:37.225Z,22.98
2022-09-28T04:16:05.829Z,22.88
2022-09-28T04:18:34.512Z,22.64
2022-09-28T04:21:20.535Z,22.40
2022-09-28T04:23:53.334Z,22.32
2022-09-28T04:26:23.279Z,22.33
2022-09-28T04:29:09.389Z,22.61
2022-09-28T04:31:40.461Z,22.50
2022-09-28T04:34:07.066Z,22.37
2022-09-28T04:36:33.768Z,22.67
2022-09-28T04:39:01.068Z,22.76
2022-09-28T04:41:28.996Z,23.00
2022-09-28T04:43:56.040Z,22.95
2022-09-28T04:46:26.058Z,22.96
2022-09-28T04:49:05.351Z,22.98
2022-09-28T04:51:43.329Z,22.92
2022-09-28T04:54:09.856Z,22.97
2022-09-28T04:56:36.994Z,23.08
2022-09-28T04:59:04.103Z,23.14
2022-09-28T05:01:31.192Z,23.19
2022-09-28T05:04:22.376Z,23.23
2022-09-28T05:07:10.755Z,23.29
2022-09-28T05:09:38.710Z,23.31
2022-09-28T05:12:05.415Z,23.15
2022-09-28T05:14:32.213Z,23.14
2022-09-28T05:16:58.946Z,23.05
2022-09-28T05:19:25.990Z,23.05
2022-09-28T05:21:55.926Z,22.93
2022-09-28T05:24:22.485Z,22.92
2022-09-28T05:26:51.124Z,22.83
2022-09-28T05:29:18.735Z,22.80
2022-09-28T05:32:08.520Z,22.44
2022-09-28T05:34:39.075Z,22.29
2022-09-28T05:37:05.734Z,22.57
2022-09-28T05:39:32.226Z,22.77
2022-09-28T05:41:58.780Z,21.89
2022-09-28T05:44:26.066Z,21.79
2022-09-28T05:46:54.636Z,21.56
2022-09-28T05:49:21.158Z,21.93
2022-09-28T05:51:47.707Z,22.37
2022-09-28T05:54:14.624Z,22.52
2022-09-28T05:56:44.850Z,22.52
2022-09-28T05:59:12.210Z,22.58
2022-09-28T06:01:39.119Z,22.71
2022-09-28T06:04:08.971Z,22.84
2022-09-28T06:06:36.675Z,22.78
2022-09-28T06:09:03.422Z,22.88
2022-09-28T06:11:59.881Z,23.03
2022-09-28T06:14:34.876Z,22.82
2022-09-28T06:17:01.516Z,22.88
2022-09-28T06:19:28.396Z,23.00
2022-09-28T06:21:59.585Z,23.00
2022-09-28T06:24:26.491Z,22.92
2022-09-28T06:26:53.019Z,22.89
2022-09-28T06:29:20.905Z,23.01
2022-09-28T06:31:47.684Z,23.20
2022-09-28T06:34:14.921Z,22.89
2022-09-28T06:36:41.625Z,22.96
2022-09-28T06:39:08.839Z,23.40
2022-09-28T06:41:36.308Z,23.04
2022-09-28T06:44:12.924Z,23.21
2022-09-28T06:47:02.050Z,23.52
2022-09-28T06:49:55.333Z,23.45
2022-09-28T06:52:41.823Z,23.31
2022-09-28T06:55:18.655Z,23.67
2022-09-28T06:58:01.748Z,23.75
2022-09-28T07:00:31.047Z,23.80
2022-09-28T07:02:57.998Z,23.92
2022-09-28T07:05:43.283Z,24.17
2022-09-28T07:08:32.791Z,24.34
2022-09-28T07:11:20.262Z,24.47
2022-09-28T07:14:02.886Z,24.60
2022-09-28T07:16:52.049Z,24.58
2022-09-28T07:19:17.640Z,24.50
2022-09-28T07:21:46.137Z,24.53
2022-09-28T07:24:14.900Z,24.58
2022-09-28T07:27:00.340Z,24.59
2022-09-28T07:29:35.510Z,24.76
2022-09-28T07:35:26.653Z,24.59
2022-09-28T07:38:04.606Z,24.64
2022-09-28T07:40:52.172Z,24.54
2022-09-28T07:43:20.839Z,24.54
2022-09-28T07:45:52.470Z,24.46
2022-09-28T07:48:20.601Z,24.27
2022-09-28T07:51:09.198Z,24.38
2022-09-28T07:53:47.954Z,24.41
2022-09-28T07:56:40.108Z,24.46
2022-09-28T07:59:20.647Z,24.22
2022-09-28T08:02:06.034Z,24.62
2022-09-28T08:04:33.375Z,24.29
2022-09-28T08:07:00.323Z,24.59
2022-09-28T08:09:26.895Z,24.79
2022-09-28T08:12:13.457Z,24.78
2022-09-28T08:14:44.574Z,24.93
2022-09-28T08:17:32.404Z,24.93
2022-09-28T08:20:19.060Z,24.58
2022-09-28T08:22:46.201Z,24.74
2022-09-28T08:25:13.220Z,24.88
2022-09-28T08:27:39.779Z,24.81
2022-09-28T08:30:07.015Z,25.05
2022-09-28T08:32:52.355Z,25.26
2022-09-28T08:35:42.506Z,25.07
2022-09-28T08:38:15.598Z,25.14
2022-09-28T08:41:12.792Z,25.39
2022-09-28T08:44:13.822Z,25.54
2022-09-28T08:47:03.764Z,25.12
2022-09-28T08:50:03.481Z,25.44
2022-09-28T08:52:40.868Z,25.57
2022-09-28T08:55:32.818Z,25.64
2022-09-28T08:58:17.477Z,25.46
2022-09-28T09:00:52.227Z,25.16
2022-09-28T09:03:32.207Z,25.23
2022-09-28T09:06:35.118Z,25.49
2022-09-28T09:09:32.995Z,25.62
2022-09-28T09:12:13.135Z,24.89
2022-09-28T09:14:58.611Z,24.75
2022-09-28T09:18:03.368Z,25.09
2022-09-28T09:20:52.647Z,25.42
2022-09-28T09:23:55.927Z,25.51
2022-09-28T09:26:39.239Z,25.79
2022-09-28T09:29:36.348Z,25.90
2022-09-28T09:32:27.698Z,25.86
2022-09-28T09:35:00.669Z,25.95
2022-09-28T09:37:57.791Z,25.85
2022-09-28T09:41:14.834Z,25.79
2022-09-28T09:44:35.217Z,25.94
2022-09-28T09:47:33.808Z,26.17
2022-09-28T09:50:17.823Z,26.27
2022-09-28T09:52:57.330Z,26.22
2022-09-28T09:55:30.046Z,25.77
2022-09-28T09:58:24.186Z,25.29
2022-09-28T10:01:13.744Z,25.86
2022-09-28T10:04:21.319Z,25.65
2022-09-28T10:06:51.690Z,25.47
2022-09-28T10:09:34.733Z,25.60
2022-09-28T10:12:20.689Z,25.71
2022-09-28T10:14:47.305Z,25.83
2022-09-28T10:17:18.321Z,25.94
2022-09-28T10:20:16.204Z,25.73
2022-09-28T10:23:04.734Z,25.54
2022-09-28T10:25:36.192Z,25.86
2022-09-28T10:28:06.450Z,26.13
2022-09-28T10:30:44.543Z,25.29
2022-09-28T10:33:31.893Z,25.59
2022-09-28T10:36:01.836Z,25.47
2022-09-28T10:38:30.187Z,25.76
2022-09-28T10:41:13.454Z,25.82
2022-09-28T10:44:07.413Z,26.39
2022-09-28T10:46:39.746Z,26.30
2022-09-28T10:49:18.791Z,26.77
2022-09-28T10:51:56.116Z,26.82
2022-09-28T10:54:31.255Z,27.11
2022-09-28T10:56:59.910Z,27.09
2022-09-28T10:59:43.385Z,27.35
2022-09-28T11:02:37.478Z,27.59
2022-09-28T11:05:21.818Z,27.56
2022-09-28T11:07:49.245Z,27.79
2022-09-28T11:10:26.029Z,27.92
2022-09-28T11:12:57.753Z,28.22
2022-09-28T11:15:29.797Z,28.30
2022-09-28T11:17:56.969Z,28.36
2022-09-28T11:20:28.436Z,28.22
2022-09-28T11:23:01.350Z,28.58
2022-09-28T11:25:32.968Z,28.52
2022-09-28T11:28:04.872Z,28.70
2022-09-28T11:30:51.368Z,29.13
2022-09-28T11:33:35.082Z,29.30
2022-09-28T11:37:01.747Z,29.00
2022-09-28T11:40:07.020Z,28.60
2022-09-28T11:42:48.899Z,28.92
2022-09-28T11:45:27.528Z,28.63
2022-09-28T11:48:02.497Z,28.75
2022-09-28T11:50:42.625Z,28.58
2022-09-28T11:53:25.303Z,28.50
2022-09-28T11:56:08.705Z,27.94
2022-09-28T11:58:41.987Z,28.04
2022-09-28T12:01:19.135Z,28.61
2022-09-28T12:04:13.689Z,28.68
2022-09-28T12:06:55.666Z,28.45
2022-09-28T12:09:43.340Z,28.64
2022-09-28T12:12:32.458Z,28.68
2022-09-28T12:15:25.282Z,28.65
2022-09-28T12:18:34.306Z,28.62
2022-09-28T12:21:25.423Z,28.00
2022-09-28T12:23:58.007Z,27.78
2022-09-28T12:26:27.192Z,27.99
2022-09-28T12:29:01.807Z,27.58
2022-09-28T12:31:39.035Z,27.43
2022-09-28T12:34:06.837Z,27.52
2022-09-28T12:37:01.035Z,27.47
2022-09-28T12:39:58.021Z,27.22
2022-09-28T12:42:44.237Z,27.30
2022-09-28T12:46:06.726Z,27.44
2022-09-28T12:49:36.617Z,27.68
2022-09-28T12:51:53.930Z,27.73
2022-09-28T12:54:30.635Z,28.14
2022-09-28T12:57:21.524Z,28.44
2022-09-28T13:00:17.411Z,28.18
2022-09-28T13:03:12.254Z,28.30
2022-09-28T13:06:23.535Z,28.58
2022-09-28T13:09:19.770Z,28.62
2022-09-28T13:12:04.050Z,28.35
2022-09-28T13:14:50.155Z,28.73
2022-09-28T13:17:38.687Z,28.69
2022-09-28T13:20:27.510Z,29.03
2022-09-28T13:23:04.607Z,29.29
2022-09-28T13:25:36.084Z,29.21
2022-09-28T13:28:06.068Z,29.23
2022-09-28T13:30:38.449Z,28.95
2022-09-28T13:33:08.366Z,28.38
2022-09-28T13:35:35.336Z,28.53
2022-09-28T13:38:17.404Z,28.72
2022-09-28T13:41:06.084Z,28.24
2022-09-28T13:43:59.893Z,28.39
2022-09-28T13:46:26.768Z,28.26
2022-09-28T13:49:09.102Z,28.67
2022-09-28T13:51:58.986Z,28.35
2022-09-28T13:54:41.680Z,28.65
2022-09-28T13:57:19.654Z,28.69
2022-09-28T14:00:03.089Z,28.57
2022-09-28T14:02:46.986Z,28.48
2022-09-28T14:05:22.401Z,28.76
2022-09-28T14:07:58.372Z,28.42
2022-09-28T14:13:43.659Z,28.14
2022-09-28T14:16:22.442Z,28.41
2022-09-28T14:19:00.246Z,28.59
2022-09-28T14:21:58.104Z,28.44
2022-09-28T14:24:40.356Z,28.43
2022-09-28T14:27:28.155Z,28.74
2022-09-28T14:30:25.757Z,28.69
2022-09-28T14:32:57.866Z,28.91
2022-09-28T14:35:34.171Z,29.15
2022-09-28T14:38:25.122Z,29.27
2022-09-28T14:41:11.442Z,29.22
2022-09-28T14:43:43.817Z,28.81
2022-09-28T14:46:19.124Z,28.77
2022-09-28T14:48:54.685Z,28.89
2022-09-28T14:51:27.170Z,29.02
2022-09-28T14:54:02.668Z,28.71
2022-09-28T14:56:33.074Z,28.51
2022-09-28T14:59:00.622Z,28.47
2022-09-28T15:01:27.819Z,28.47
2022-09-28T15:03:57.029Z,28.66
2022-09-28T15:06:25.501Z,29.04
2022-09-28T15:08:52.094Z,29.42
2022-09-28T15:11:25.391Z,29.37
2022-09-28T15:14:06.227Z,29.29
2022-09-28T15:16:33.321Z,29.16
2022-09-28T15:19:28.086Z,29.39
2022-09-28T15:21:54.780Z,29.19
2022-09-28T15:24:33.446Z,29.41
2022-09-28T15:27:01.850Z,29.27
2022-09-28T15:29:31.351Z,29.57
2022-09-28T15:31:59.444Z,29.90
2022-09-28T15:34:45.688Z,29.30
2022-09-28T15:37:13.883Z,29.32
2022-09-28T15:39:40.577Z,29.18
2022-09-28T15:42:07.912Z,28.97
2022-09-28T15:44:37.111Z,29.34
2022-09-28T15:47:13.854Z,29.37
2022-09-28T15:49:42.967Z,29.14
2022-09-28T15:52:30.517Z,29.14
2022-09-28T15:54:58.270Z,29.09
2022-09-28T15:57:32.811Z,28.99
2022-09-28T16:00:00.727Z,28.88
2022-09-28T16:02:27.899Z,28.75
2022-09-28T16:05:01.990Z,28.26
2022-09-28T16:07:38.087Z,28.27
2022-09-28T16:10:30.855Z,28.06
2022-09-28T16:13:08.454Z,27.79
2022-09-28T16:15:37.686Z,27.85
2022-09-28T16:18:20.065Z,27.77
2022-09-28T16:20:50.129Z,27.94
2022-09-28T16:23:16.749Z,27.93
2022-09-28T16:25:51.659Z,27.81
2022-09-28T16:28:48.741Z,27.76
2022-09-28T16:31:15.373Z,27.65
2022-09-28T16:33:55.154Z,27.49
2022-09-28T16:36:23.064Z,27.39
2022-09-28T16:38:49.770Z,27.33
2022-09-28T16:41:20.885Z,27.32
2022-09-28T16:43:47.867Z,27.13
2022-09-28T16:46:17.426Z,26.84
2022-09-28T16:48:49.095Z,26.98
2022-09-28T16:51:18.090Z,26.72
2022-09-28T16:54:04.549Z,26.71
2022-09-28T16:56:33.191Z,26.63
2022-09-28T16:58:59.952Z,26.44
2022-09-28T17:01:27.035Z,26.42
2022-09-28T17:03:54.034Z,26.19
2022-09-28T17:06:24.852Z,26.14
2022-09-28T17:08:52.174Z,26.04
2022-09-28T17:11:24.174Z,25.79
2022-09-28T17:13:52.436Z,25.71
2022-09-28T17:16:32.594Z,25.50
2022-09-28T17:19:19.522Z,25.37
2022-09-28T17:21:48.174Z,25.25
2022-09-28T17:24:14.752Z,25.29
2022-09-28T17:26:44.331Z,25.33
2022-09-28T17:29:15.152Z,25.07
2022-09-28T17:31:43.688Z,25.17
2022-09-28T17:34:11.858Z,24.99
2022-09-28T17:36:40.634Z,24.74
2022-09-28T17:39:11.441Z,24.54
2022-09-28T17:41:38.036Z,24.33
2022-09-28T17:44:04.559Z,24.22
2022-09-28T17:46:33.518Z,24.28
2022-09-28T17:49:02.734Z,24.09
2022-09-28T17:51:32.254Z,23.94
2022-09-28T17:54:01.226Z,24.06
2022-09-28T17:56:32.265Z,24.01
2022-09-28T17:59:03.168Z,23.90
2022-09-28T18:01:34.589Z,23.87
2022-09-28T18:04:03.977Z,23.70
2022-09-28T18:06:33.777Z,23.50
2022-09-28T18:09:03.246Z,23.69
2022-09-28T18:11:31.372Z,23.18
2022-09-28T18:13:57.922Z,23.19
2022-09-28T18:16:27.761Z,23.29
2022-09-28T18:18:55.006Z,23.03
2022-09-28T18:21:21.693Z,22.92
2022-09-28T18:23:48.304Z,23.04
2022-09-28T18:26:16.685Z,22.95
2022-09-28T18:28:43.230Z,22.97
2022-09-28T18:31:12.409Z,22.98
2022-09-28T18:33:39.784Z,22.79
2022-09-28T18:36:07.435Z,22.74
2022-09-28T18:38:37.768Z,22.74
2022-09-28T18:41:16.186Z,22.55
2022-09-28T18:43:49.217Z,22.56
2022-09-28T18:46:18.092Z,22.64
2022-09-28T18:48:45.079Z,22.84
2022-09-28T18:51:12.510Z,22.74
2022-09-28T18:53:40.044Z,22.72
2022-09-28T18:56:13.217Z,22.74
2022-09-28T18:58:41.614Z,22.42
2022-09-28T19:01:28.867Z,22.49
2022-09-28T19:03:58.881Z,22.22
2022-09-28T19:06:25.445Z,21.79
2022-09-28T19:08:54.258Z,21.90
2022-09-28T19:11:21.227Z,21.92
2022-09-28T19:13:48.166Z,21.69
2022-09-28T19:16:18.545Z,21.93
2022-09-28T19:18:45.307Z,22.04
2022-09-28T19:21:15.099Z,21.93
2022-09-28T19:23:48.937Z,22.10
2022-09-28T19:26:20.306Z,22.13
2022-09-28T19:28:47.786Z,22.13
2022-09-28T19:31:14.875Z,22.08
2022-09-28T19:33:42.134Z,22.13
2022-09-28T19:36:12.769Z,22.13
2022-09-28T19:38:40.552Z,22.12
2022-09-28T19:41:39.323Z,22.16
2022-09-28T19:44:10.493Z,22.07
2022-09-28T19:46:38.839Z,21.92
2022-09-28T19:49:08.605Z,21.91
2022-09-28T19:51:37.154Z,22.00
2022-09-28T19:54:06.324Z,21.93
2022-09-28T19:56:34.222Z,21.89
2022-09-28T19:59:01.951Z,21.95
2022-09-28T20:01:30.508Z,21.90
2022-09-28T20:03:58.406Z,21.94
2022-09-28T20:06:26.160Z,21.82
2022-09-28T20:08:53.083Z,21.65
2022-09-28T20:11:20.773Z,21.57
2022-09-28T20:13:48.641Z,21.63
2022-09-28T20:16:18.382Z,21.60
2022-09-28T20:18:52.291Z,21.71
2022-09-28T20:21:24.939Z,21.74
2022-09-28T20:23:59.086Z,21.82
2022-09-28T20:26:26.886Z,21.86
2022-09-28T20:28:53.995Z,21.70
2022-09-28T20:31:23.721Z,21.76
2022-09-28T20:33:51.447Z,21.75
2022-09-28T20:36:21.187Z,21.72
2022-09-28T20:38:53.080Z,21.76
2022-09-28T20:41:22.079Z,21.76
2022-09-28T20:43:54.417Z,21.73
2022-09-28T20:46:22.039Z,21.50
2022-09-28T20:48:53.948Z,21.58
2022-09-28T20:51:21.580Z,21.47
2022-09-28T20:53:52.872Z,21.41
2022-09-28T20:56:38.646Z,21.63
2022-09-28T20:59:07.609Z,21.48
2022-09-28T21:01:34.769Z,21.31
2022-09-28T21:04:03.618Z,21.41
2022-09-28T21:06:32.985Z,21.48
2022-09-28T21:08:59.903Z,21.58
2022-09-28T21:11:28.006Z,21.42
2022-09-28T21:14:00.151Z,21.37
2022-09-28T21:16:29.518Z,21.41
2022-09-28T21:18:56.122Z,21.40
2022-09-28T21:21:23.732Z,21.51
2022-09-28T21:23:54.497Z,21.49
2022-09-28T21:26:25.840Z,21.48
2022-09-28T21:29:01.147Z,21.41
2022-09-28T21:31:31.309Z,21.23
2022-09-28T21:33:58.897Z,21.18
2022-09-28T21:36:25.931Z,21.20
2022-09-28T21:38:54.116Z,21.23
2022-09-28T21:41:24.241Z,21.25
2022-09-28T21:43:51.469Z,21.33
2022-09-28T21:46:18.156Z,21.26
2022-09-28T21:48:45.360Z,21.29
2022-09-28T21:51:15.035Z,21.30
2022-09-28T21:53:42.547Z,21.28
2022-09-28T21:56:11.796Z,21.40
2022-09-28T21:58:40.058Z,21.48
2022-09-28T22:01:08.168Z,21.56
2022-09-28T22:03:36.545Z,21.70
2022-09-28T22:06:04.432Z,21.75
2022-09-28T22:08:31.315Z,21.82
2022-09-28T22:11:03.667Z,21.91
2022-09-28T22:13:32.365Z,21.92
2022-09-28T22:15:59.276Z,22.04
2022-09-28T22:18:29.538Z,22.04
2022-09-28T22:21:00.804Z,22.16
2022-09-28T22:23:28.375Z,22.17
2022-09-28T22:26:11.281Z,22.18
2022-09-28T22:28:39.054Z,22.08
2022-09-28T22:31:06.120Z,22.03
2022-09-28T22:33:34.274Z,22.23
2022-09-28T22:36:00.943Z,22.26
2022-09-28T22:38:28.059Z,22.36
2022-09-28T22:40:56.118Z,22.45
2022-09-28T22:43:24.855Z,22.54
2022-09-28T22:46:05.266Z,22.57
2022-09-28T22:48:32.875Z,22.67
2022-09-28T22:50:59.659Z,22.54
2022-09-28T22:53:26.579Z,22.67
2022-09-28T22:55:53.253Z,22.69
2022-09-28T22:58:20.038Z,22.67
2022-09-28T23:00:46.638Z,22.66
2022-09-28T23:03:13.280Z,22.69
2022-09-28T23:05:40.332Z,22.11
2022-09-28T23:08:07.023Z,22.46
2022-09-28T23:10:33.641Z,22.73
2022-09-28T23:13:00.183Z,22.79
2022-09-28T23:15:28.215Z,22.38
2022-09-28T23:17:55.439Z,22.09
2022-09-28T23:20:22.124Z,22.35
2022-09-28T23:22:49.251Z,22.50
2022-09-28T23:25:17.723Z,22.63
2022-09-28T23:27:47.778Z,22.58
2022-09-28T23:30:16.265Z,22.88
2022-09-28T23:32:43.111Z,22.99
2022-09-28T23:35:10.519Z,23.05
2022-09-28T23:37:37.674Z,23.14
2022-09-28T23:40:05.880Z,23.18
2022-09-28T23:42:34.661Z,23.24
2022-09-28T23:45:01.261Z,23.38
2022-09-28T23:47:27.882Z,22.96
2022-09-28T23:49:54.397Z,23.20
2022-09-28T23:52:20.956Z,23.14
2022-09-28T23:54:47.531Z,23.29
2022-09-28T23:57:14.475Z,23.36
2022-09-28T23:59:41.036Z,23.42
